createdAt,value
2019-04-03T00:03:49.168Z,88.70
2019-04-03T00:07:51.049Z,88.70
2019-04-03T00:11:53.488Z,88.40
2019-04-03T00:15:56.357Z,88.30
2019-04-03T00:19:58.438Z,89.10
2019-04-03T00:24:00.356Z,89.20
2019-04-03T00:28:02.220Z,89.50
2019-04-03T00:32:04.687Z,89.70
2019-04-03T00:36:06.713Z,90.10
2019-04-03T00:40:09.418Z,91.30
2019-04-03T00:44:11.325Z,90.40
2019-04-03T00:48:13.206Z,90.10
2019-04-03T00:52:15.141Z,90.50
2019-04-03T00:56:18.020Z,90.90
2019-04-03T01:00:19.956Z,91.00
2019-04-03T01:04:21.876Z,91.20
2019-04-03T01:08:23.959Z,91.20
2019-04-03T01:12:25.850Z,91.20
2019-04-03T01:16:27.846Z,91.30
2019-04-03T01:20:29.758Z,91.50
2019-04-03T01:24:31.655Z,91.40
2019-04-03T01:28:33.539Z,91.30
2019-04-03T01:32:36.417Z,91.60
2019-04-03T01:36:38.329Z,91.50
2019-04-03T01:40:40.230Z,92.00
2019-04-03T01:44:42.121Z,91.80
2019-04-03T01:48:44.007Z,91.50
2019-04-03T01:52:45.924Z,91.80
2019-04-03T01:56:48.004Z,92.00
2019-04-03T02:00:50.132Z,92.30
2019-04-03T02:04:52.057Z,92.30
2019-04-03T02:08:53.957Z,92.40
2019-04-03T02:12:56.037Z,92.10
2019-04-03T02:16:58.025Z,92.40
2019-04-03T02:20:59.915Z,92.50
2019-04-03T02:25:02.281Z,92.50
2019-04-03T02:29:06.662Z,92.50
2019-04-03T02:33:08.449Z,92.20
2019-04-03T02:37:10.346Z,92.20
2019-04-03T02:41:12.421Z,92.20
2019-04-03T02:45:15.719Z,92.20
2019-04-03T02:49:17.600Z,92.20
2019-04-03T02:53:20.383Z,92.60
2019-04-03T02:57:22.349Z,92.60
2019-04-03T03:01:24.245Z,92.70
2019-04-03T03:05:28.102Z,92.50
2019-04-03T03:09:31.745Z,92.40
2019-04-03T03:13:35.247Z,92.60
2019-04-03T03:17:39.184Z,93.10
2019-04-03T03:21:43.890Z,93.40
2019-04-03T03:25:46.446Z,93.50
2019-04-03T03:29:48.978Z,93.30
2019-04-03T03:33:51.286Z,93.10
2019-04-03T03:37:54.147Z,93.20
2019-04-03T03:41:58.519Z,93.00
2019-04-03T03:46:01.504Z,93.00
2019-04-03T03:50:04.436Z,93.60
2019-04-03T03:54:06.827Z,93.30
2019-04-03T03:58:12.550Z,93.30
2019-04-03T04:02:13.832Z,93.20
2019-04-03T04:06:15.827Z,93.50
2019-04-03T04:10:17.716Z,93.50
2019-04-03T04:14:22.846Z,94.00
2019-04-03T04:18:25.832Z,93.90
2019-04-03T04:22:28.586Z,94.00
2019-04-03T04:26:31.795Z,93.80
2019-04-03T04:30:34.966Z,93.80
2019-04-03T04:34:37.175Z,93.70
2019-04-03T04:38:39.149Z,93.90
2019-04-03T04:42:41.056Z,93.90
2019-04-03T04:46:44.532Z,94.00
2019-04-03T04:50:46.642Z,93.90
2019-04-03T04:54:48.632Z,93.80
2019-04-03T04:58:50.527Z,93.90
2019-04-03T05:02:52.441Z,94.00
2019-04-03T05:06:54.345Z,93.90
2019-04-03T05:10:56.231Z,93.80
2019-04-03T05:14:58.150Z,93.70
2019-04-03T05:19:09.499Z,93.90
2019-04-03T05:23:04.092Z,94.00
2019-04-03T05:27:08.147Z,94.20
2019-04-03T05:31:09.848Z,94.20
2019-04-03T05:35:14.584Z,94.20
2019-04-03T05:39:15.463Z,94.30
2019-04-03T05:43:17.442Z,94.60
2019-04-03T05:47:19.440Z,94.30
2019-04-03T05:51:21.308Z,94.30
2019-04-03T05:55:23.384Z,94.20
2019-04-03T05:59:25.295Z,94.80
2019-04-03T06:03:38.822Z,94.20
2019-04-03T06:07:30.989Z,94.20
2019-04-03T06:11:33.177Z,94.10
2019-04-03T06:15:35.248Z,94.00
2019-04-03T06:19:39.739Z,94.00
2019-04-03T06:28:14.733Z,94.00
2019-04-03T06:32:17.053Z,93.90
2019-04-03T06:36:19.244Z,94.00
2019-04-03T06:40:21.133Z,93.80
2019-04-03T06:44:23.155Z,93.40
2019-04-03T06:48:26.081Z,93.30
2019-04-03T06:52:27.978Z,93.20
2019-04-03T06:56:29.910Z,92.60
2019-04-03T07:00:31.847Z,92.50
2019-04-03T07:04:33.751Z,91.80
2019-04-03T07:08:38.043Z,91.00
2019-04-03T07:12:40.276Z,90.70
2019-04-03T07:16:42.255Z,89.40
2019-04-03T07:20:44.162Z,89.50
2019-04-03T07:24:47.128Z,88.70
2019-04-03T07:28:49.115Z,88.50
2019-04-03T07:32:51.245Z,86.90
2019-04-03T07:36:54.164Z,84.70
2019-04-03T07:40:56.145Z,85.40
2019-04-03T07:44:58.072Z,84.80
2019-04-03T07:49:00.703Z,83.20
2019-04-03T07:53:02.788Z,83.50
2019-04-03T07:57:04.903Z,83.10
2019-04-03T08:01:09.860Z,82.30
2019-04-03T08:05:10.941Z,81.20
2019-04-03T08:09:12.866Z,81.40
2019-04-03T08:13:15.115Z,80.60
2019-04-03T08:17:19.038Z,80.30
2019-04-03T08:21:21.903Z,81.40
2019-04-03T08:25:24.001Z,79.50
2019-04-03T08:29:25.910Z,78.20
2019-04-03T08:33:28.246Z,78.20
2019-04-03T08:37:32.305Z,77.80
2019-04-03T08:41:36.924Z,76.30
2019-04-03T08:45:39.278Z,74.70
2019-04-03T08:49:41.600Z,73.80
2019-04-03T08:53:43.723Z,74.80
2019-04-03T08:57:46.836Z,71.20
2019-04-03T09:01:48.926Z,71.00
2019-04-03T09:05:52.010Z,71.40
2019-04-03T09:09:54.535Z,70.20
2019-04-03T09:13:56.462Z,69.10
2019-04-03T09:17:59.450Z,67.40
2019-04-03T09:22:01.342Z,65.00
2019-04-03T09:26:04.298Z,63.50
2019-04-03T09:30:10.662Z,62.70
2019-04-03T09:34:12.552Z,61.50
2019-04-03T09:38:14.478Z,61.50
2019-04-03T09:42:16.375Z,56.90
2019-04-03T09:46:18.285Z,56.00
2019-04-03T09:50:22.067Z,54.70
2019-04-03T09:54:24.079Z,54.10
2019-04-03T09:58:26.265Z,54.10
2019-04-03T10:02:28.189Z,54.40
2019-04-03T10:06:31.419Z,54.60
2019-04-03T10:10:33.662Z,55.00
2019-04-03T10:14:37.059Z,55.60
2019-04-03T10:18:41.162Z,52.80
2019-04-03T10:22:42.751Z,53.00
2019-04-03T10:26:44.843Z,52.10
2019-04-03T10:30:46.759Z,51.70
2019-04-03T10:34:50.035Z,50.90
2019-04-03T10:38:52.129Z,51.20
2019-04-03T10:42:54.245Z,48.80
2019-04-03T10:46:56.180Z,49.60
2019-04-03T10:50:58.104Z,47.30
2019-04-03T10:55:00.031Z,47.40
2019-04-03T10:59:11.062Z,48.10
2019-04-03T11:03:05.784Z,47.70
2019-04-03T11:07:07.907Z,47.60
2019-04-03T11:11:09.909Z,47.00
2019-04-03T11:15:13.932Z,46.50
2019-04-03T11:19:15.873Z,44.60
2019-04-03T11:23:18.095Z,45.50
2019-04-03T11:27:25.016Z,46.30
2019-04-03T11:31:28.250Z,46.10
2019-04-03T11:35:28.619Z,45.60
2019-04-03T11:39:30.538Z,44.60
2019-04-03T11:43:32.606Z,43.80
2019-04-03T11:47:34.734Z,44.40
2019-04-03T11:51:37.682Z,43.00
2019-04-03T11:55:41.331Z,43.80
2019-04-03T11:59:43.219Z,42.00
2019-04-03T12:03:45.266Z,41.80
2019-04-03T12:07:47.878Z,41.60
2019-04-03T12:11:50.190Z,41.10
2019-04-03T12:15:53.652Z,42.00
2019-04-03T12:19:55.859Z,39.60
2019-04-03T12:23:58.871Z,39.70
2019-04-03T12:28:02.046Z,38.10
2019-04-03T12:32:04.611Z,36.50
2019-04-03T12:36:08.792Z,34.60
2019-04-03T12:40:11.581Z,35.50
2019-04-03T12:44:13.548Z,34.50
2019-04-03T12:48:17.484Z,33.40
2019-04-03T12:52:19.239Z,31.90
2019-04-03T12:56:23.929Z,31.60
2019-04-03T13:00:25.898Z,31.40
2019-04-03T13:04:30.233Z,32.50
2019-04-03T13:08:31.661Z,33.10
2019-04-03T13:12:33.820Z,34.20
2019-04-03T13:16:35.741Z,35.80
2019-04-03T13:20:38.735Z,34.20
2019-04-03T13:24:43.382Z,32.90
2019-04-03T13:28:45.311Z,32.00
2019-04-03T13:32:57.646Z,31.00
2019-04-03T13:36:51.953Z,30.80
2019-04-03T13:40:54.313Z,30.20
2019-04-03T13:44:58.324Z,29.40
2019-04-03T13:49:00.383Z,30.10
2019-04-03T13:57:26.720Z,27.30
2019-04-03T14:01:29.007Z,28.90
2019-04-03T14:05:32.870Z,27.90
2019-04-03T14:09:34.981Z,28.30
2019-04-03T14:13:37.004Z,28.60
2019-04-03T14:17:39.199Z,29.20
2019-04-03T14:21:41.185Z,30.20
2019-04-03T14:25:43.163Z,31.60
2019-04-03T14:29:45.074Z,30.90
2019-04-03T14:33:47.306Z,31.80
2019-04-03T14:37:49.838Z,31.40
2019-04-03T14:41:54.326Z,31.00
2019-04-03T14:45:55.403Z,31.80
2019-04-03T14:49:57.302Z,32.60
2019-04-03T14:53:59.236Z,32.90
2019-04-03T14:58:01.933Z,34.10
2019-04-03T15:02:04.883Z,33.70
2019-04-03T15:06:06.941Z,34.80
2019-04-03T15:10:09.562Z,35.00
2019-04-03T15:14:11.704Z,35.70
2019-04-03T15:18:14.189Z,36.00
2019-04-03T15:22:16.465Z,35.60
2019-04-03T15:26:21.764Z,35.40
2019-04-03T15:30:24.885Z,34.80
2019-04-03T15:34:27.735Z,35.80
2019-04-03T15:38:30.075Z,35.40
2019-04-03T15:42:32.511Z,35.80
2019-04-03T15:46:34.489Z,36.10
2019-04-03T15:50:38.411Z,36.10
2019-04-03T15:54:40.175Z,35.90
2019-04-03T15:58:42.095Z,35.80
2019-04-03T16:02:47.145Z,35.70
2019-04-03T16:06:49.540Z,36.00
2019-04-03T16:10:51.666Z,37.10
2019-04-03T16:14:54.346Z,35.80
2019-04-03T16:18:57.306Z,36.30
2019-04-03T16:22:59.490Z,36.20
2019-04-03T16:27:01.670Z,36.80
2019-04-03T16:31:03.716Z,37.50
2019-04-03T16:35:08.262Z,38.00
2019-04-03T16:39:10.426Z,38.70
2019-04-03T16:43:12.691Z,39.00
2019-04-03T16:47:15.064Z,39.00
2019-04-03T16:51:16.973Z,39.70
2019-04-03T16:55:19.341Z,39.30
2019-04-03T16:59:21.250Z,39.60
2019-04-03T17:03:23.429Z,40.40
2019-04-03T17:07:25.370Z,40.30
2019-04-03T17:11:27.232Z,41.10
2019-04-03T17:15:29.135Z,40.50
2019-04-03T17:19:31.057Z,41.20
2019-04-03T17:23:32.973Z,41.80
2019-04-03T17:27:34.895Z,41.70
2019-04-03T17:31:36.792Z,42.10
2019-04-03T17:35:38.869Z,42.90
2019-04-03T17:39:41.884Z,42.60
2019-04-03T17:43:43.848Z,42.60
2019-04-03T17:47:45.788Z,42.80
2019-04-03T17:51:47.710Z,43.40
2019-04-03T17:55:49.683Z,44.20
2019-04-03T17:59:51.594Z,44.60
2019-04-03T18:03:54.485Z,45.80
2019-04-03T18:07:58.514Z,46.80
2019-04-03T18:12:00.101Z,47.50
2019-04-03T18:16:01.997Z,48.80
2019-04-03T18:20:05.457Z,49.60
2019-04-03T18:24:07.353Z,50.10
2019-04-03T18:28:10.336Z,50.70
2019-04-03T18:32:13.667Z,51.60
2019-04-03T18:36:16.889Z,52.00
2019-04-03T18:40:18.814Z,52.30
2019-04-03T18:44:22.355Z,53.20
2019-04-03T18:48:24.596Z,54.40
2019-04-03T18:52:26.526Z,55.20
2019-04-03T18:56:31.957Z,55.80
2019-04-03T19:00:33.193Z,56.70
2019-04-03T19:04:37.464Z,57.10
2019-04-03T19:08:38.710Z,57.20
2019-04-03T19:12:43.135Z,57.70
2019-04-03T19:16:47.854Z,58.40
2019-04-03T19:20:47.844Z,58.80
2019-04-03T19:24:49.768Z,59.20
2019-04-03T19:28:51.696Z,59.80
2019-04-03T19:32:54.647Z,60.20
2019-04-03T19:36:56.562Z,61.70
2019-04-03T19:40:58.465Z,62.50
2019-04-03T19:45:00.393Z,64.00
2019-04-03T19:49:02.322Z,64.40
2019-04-03T19:53:07.815Z,64.70
2019-04-03T19:57:08.789Z,65.00
2019-04-03T20:01:10.699Z,64.10
2019-04-03T20:05:13.032Z,64.20
2019-04-03T20:09:17.660Z,66.00
2019-04-03T20:13:18.738Z,65.80
2019-04-03T20:17:20.713Z,67.00
2019-04-03T20:21:22.639Z,75.40
2019-04-03T20:25:24.572Z,80.30
2019-04-03T20:29:28.142Z,81.10
2019-04-03T20:33:30.090Z,82.40
2019-04-03T20:37:31.983Z,83.90
2019-04-03T20:41:34.809Z,84.50
2019-04-03T20:45:38.132Z,85.40
2019-04-03T20:49:40.022Z,85.80
2019-04-03T20:53:41.912Z,87.30
2019-04-03T20:57:54.830Z,88.10
2019-04-03T21:01:47.452Z,89.00
2019-04-03T21:05:49.485Z,89.60
2019-04-03T21:09:51.427Z,90.00
2019-04-03T21:13:54.543Z,90.20
2019-04-03T21:17:56.446Z,90.60
2019-04-03T21:21:59.769Z,91.10
2019-04-03T21:26:02.204Z,91.10
2019-04-03T21:30:07.604Z,91.10
2019-04-03T21:34:09.491Z,91.10
2019-04-03T21:38:11.519Z,91.00
2019-04-03T21:42:14.403Z,91.10
2019-04-03T21:46:17.376Z,91.00
2019-04-03T21:50:20.018Z,90.90
2019-04-03T21:54:21.875Z,90.80
2019-04-03T21:58:23.771Z,90.60
2019-04-03T22:02:25.673Z,89.90
2019-04-03T22:06:27.861Z,89.10
2019-04-03T22:10:32.794Z,88.70
2019-04-03T22:14:33.405Z,88.40
2019-04-03T22:18:35.291Z,88.20
2019-04-03T22:22:38.158Z,88.20
2019-04-03T22:26:41.347Z,88.70
2019-04-03T22:30:43.333Z,89.50
2019-04-03T22:34:46.860Z,90.10
2019-04-03T22:38:48.742Z,90.10
2019-04-03T22:42:50.633Z,90.10
2019-04-03T22:46:54.116Z,90.10
2019-04-03T22:50:57.085Z,90.20
2019-04-03T22:54:58.950Z,90.00
2019-04-03T22:59:01.090Z,90.00
2019-04-03T23:03:03.489Z,89.90
2019-04-03T23:07:05.414Z,89.60
2019-04-03T23:11:07.301Z,89.50
2019-04-03T23:15:10.962Z,89.70
2019-04-03T23:19:12.846Z,90.00
2019-04-03T23:23:14.735Z,90.00
2019-04-03T23:27:16.636Z,90.00
2019-04-03T23:31:18.524Z,90.10
2019-04-03T23:35:21.184Z,90.30
2019-04-03T23:39:24.226Z,90.20
2019-04-03T23:43:26.122Z,90.40
2019-04-03T23:47:28.010Z,90.40
2019-04-03T23:51:29.983Z,90.50
2019-04-03T23:55:32.311Z,90.60
2019-04-03T23:59:34.213Z,90.80
